Uraga Maru — JD2163 — position and weather

sailwx.info

Track history (hours):
 
Tides and Currents Weather Stations Pressure Air Temp Water Temp Dewpoint Dewpoint Depression Visibility Wind Speed Wind Dir Waves Ship Positions

Uraga Maru

Last reported at 2015-Mar-04 18:15 UTC. Time now 2015-Mar-04 22:44 UTC.
Position N 35°17' E 139°41'.

Length 40 m; draft 2.8 m.

Type: Tug. MMSI: 431101119.

Date/timePositionNaut miles runAvg speedWind from/ knotsBaromVisibWave heightAir tempDewpointWater temp
2015-Mar-04 18:15N 35°17' E 139°41'0 0.0
2015-Mar-04 17:33N 35°17' E 139°41'0 0.0
2015-Mar-04 16:32N 35°17' E 139°41'0 0.0
2015-Mar-04 15:33N 35°17' E 139°41'0 0.0
2015-Mar-04 14:30N 35°17' E 139°41'0 0.0
2015-Mar-04 13:18N 35°17' E 139°41'0 0.0
2015-Mar-04 12:33N 35°17' E 139°41'0 0.0
2015-Mar-04 11:33N 35°17' E 139°41'0 0.0
2015-Mar-04 10:29N 35°17' E 139°41'0 0.0
2015-Mar-04 09:23N 35°17' E 139°41'0 0.0
2015-Mar-04 08:28N 35°17' E 139°41'0 0.0
2015-Mar-04 07:29N 35°17' E 139°41'0 0.0
2015-Mar-04 06:28N 35°17' E 139°41'0 0.0
2015-Mar-04 05:32N 35°17' E 139°41'0 0.0
2015-Mar-04 04:33N 35°17' E 139°41'0 0.0
2015-Mar-04 03:33N 35°17' E 139°41'3 2.9
2015-Mar-04 02:33N 35°17' E 139°44'1 1.1
2015-Mar-04 01:32N 35°18' E 139°44'6 6.4
2015-Mar-04 00:33N 35°23' E 139°48'2 2.5
2015-Mar-03 23:33N 35°21' E 139°49'8 7.6
2015-Mar-03 22:33N 35°17' E 139°41'0 0.2
2015-Mar-03 21:21N 35°17' E 139°41'0 0.0
2015-Mar-03 15:24N 35°17' E 139°41'0 0.0
2015-Mar-03 14:31N 35°17' E 139°41'0 0.0
2015-Mar-03 13:31N 35°17' E 139°41'0 0.0
2015-Mar-03 11:25N 35°17' E 139°41'0 0.0
2015-Mar-03 10:18N 35°17' E 139°41'0 0.0
2015-Mar-03 09:22N 35°17' E 139°41'0 0.0
2015-Mar-03 08:28N 35°17' E 139°41'0 0.0
2015-Mar-03 07:33N 35°17' E 139°41'0 0.0
2015-Mar-03 06:32N 35°17' E 139°41'0 0.0
2015-Mar-03 05:33N 35°17' E 139°41'6 5.8
2015-Mar-03 04:33N 35°23' E 139°42'6 5.8
2015-Mar-03 03:33N 35°28' E 139°44'0 0.1
2015-Mar-03 02:33N 35°28' E 139°44'0 0.2
2015-Mar-03 01:34N 35°28' E 139°44'0 0.2
2015-Mar-03 00:33N 35°28' E 139°44'0 0.3
2015-Mar-02 23:34N 35°28' E 139°44'0 0.3
2015-Mar-02 22:33N 35°28' E 139°44'0 0.2
2015-Mar-02 21:33N 35°28' E 139°44'0 0.3
2015-Mar-02 20:33N 35°28' E 139°44'0 0.0
2015-Mar-02 19:33N 35°28' E 139°44'0 0.0
2015-Mar-02 18:33N 35°28' E 139°44'0 0.0
2015-Mar-02 17:33N 35°28' E 139°44'0 0.0
2015-Mar-02 16:33N 35°28' E 139°44'0 0.0
2015-Mar-02 15:33N 35°28' E 139°44'0 0.0
2015-Mar-02 14:33N 35°28' E 139°44'0 0.0
2015-Mar-02 13:33N 35°28' E 139°44'0 0.0
2015-Mar-02 12:33N 35°28' E 139°44'0 0.1
2015-Mar-02 11:32N 35°28' E 139°44'0 0.1
2015-Mar-02 10:33N 35°28' E 139°44'0 0.2
2015-Mar-02 09:31N 35°28' E 139°44'0 0.1
2015-Mar-02 08:33N 35°28' E 139°44'0 0.0
2015-Mar-02 07:33N 35°28' E 139°44'0 0.2
2015-Mar-02 06:33N 35°28' E 139°44'0 0.0
2015-Mar-02 05:33N 35°28' E 139°44'0 0.2
2015-Mar-02 04:33N 35°28' E 139°44'0 0.2
2015-Mar-02 03:33N 35°28' E 139°44'2 1.7
2015-Mar-02 02:33N 35°27' E 139°45'1110.6
2015-Mar-02 01:33N 35°16' E 139°46'4 3.6
2015-Mar-02 00:33N 35°13' E 139°46'6 5.7
2015-Mar-01 23:30N 35°17' E 139°41'0 0.0
2015-Mar-01 22:34N 35°17' E 139°41'0 0.0
2015-Mar-01 09:11N 35°17' E 139°41'0 0.0
2015-Mar-01 08:24N 35°17' E 139°41'0 0.0
2015-Mar-01 07:16N 35°17' E 139°41'0 0.2
2015-Mar-01 05:33N 35°17' E 139°41'6 5.9
2015-Mar-01 04:34N 35°23' E 139°43'7 6.8
2015-Mar-01 03:34N 35°16' E 139°46'5 4.6
2015-Mar-01 02:33N 35°12' E 139°48'6 5.6
2015-Mar-01 01:33N 35°17' E 139°44'8 8.1
2015-Mar-01 00:33N 35°25' E 139°43'7 6.9
2015-Feb-28 23:33N 35°18' E 139°45'6 6.4
2015-Feb-28 22:33N 35°12' E 139°46'7 6.3
2015-Feb-28 21:27N 35°17' E 139°41'0 0.0
2015-Feb-28 20:32N 35°17' E 139°41'0 0.0
2015-Feb-28 07:24N 35°17' E 139°41'0 0.0
2015-Feb-28 06:32N 35°17' E 139°41'0 0.0
2015-Feb-28 05:32N 35°17' E 139°41'0 0.0
2015-Feb-28 04:33N 35°17' E 139°41'0 0.0
2015-Feb-28 03:31N 35°17' E 139°41'4 3.9
2015-Feb-28 02:28N 35°16' E 139°45'1 1.2
2015-Feb-28 01:29N 35°17' E 139°45'9 9.3
2015-Feb-28 00:33N 35°25' E 139°47'5 4.6
2015-Feb-27 23:33N 35°21' E 139°49'1 1.3
2015-Feb-27 22:34N 35°22' E 139°48'6 6.0
2015-Feb-27 21:33N 35°16' E 139°47'3 3.4
2015-Feb-27 20:33N 35°13' E 139°45'2 2.2
2015-Feb-27 19:33N 35°13' E 139°43'0 0.0
2015-Feb-27 18:33N 35°13' E 139°43'2 2.3
2015-Feb-27 17:33N 35°12' E 139°45'1010.3
2015-Feb-27 16:34N 35°22' E 139°42'2 1.9
2015-Feb-27 15:34N 35°24' E 139°41'2 1.7
2015-Feb-27 14:34N 35°23' E 139°43'6 6.3
2015-Feb-27 13:33N 35°26' E 139°50'4 4.4
2015-Feb-27 12:34N 35°23' E 139°46'10 9.4
2015-Feb-27 11:32N 35°13' E 139°47'2 2.3
2015-Feb-27 10:33N 35°13' E 139°44'1 0.8
2015-Feb-27 09:15N 35°13' E 139°43'4 5.5
2015-Feb-27 08:32N 35°17' E 139°45'7 7.4
2015-Feb-27 07:33N 35°24' E 139°44'0 0.3
2015-Feb-27 06:33N 35°24' E 139°44'0 0.4
2015-Feb-27 05:33N 35°24' E 139°44'0 0.0
2015-Feb-27 04:33N 35°24' E 139°44'0 0.0
2015-Feb-27 03:33N 35°24' E 139°44'0 0.0
2015-Feb-27 02:33N 35°24' E 139°44'0 0.0
2015-Feb-27 01:33N 35°24' E 139°44'3 2.8
2015-Feb-27 00:33N 35°21' E 139°45'1111.0
2015-Feb-26 23:33N 35°10' E 139°47'4 4.3
2015-Feb-26 22:33N 35°13' E 139°43'0 0.0
2015-Feb-26 21:33N 35°13' E 139°43'0 0.0
2015-Feb-26 20:33N 35°13' E 139°43'0 0.0
2015-Feb-26 19:32N 35°13' E 139°43'0 0.0
2015-Feb-26 18:33N 35°13' E 139°43'0 0.0
2015-Feb-26 17:33N 35°13' E 139°43'0 0.0
2015-Feb-26 16:33N 35°13' E 139°43'0 0.0
2015-Feb-26 15:32N 35°13' E 139°43'0 0.0
2015-Feb-26 14:33N 35°13' E 139°43'0 0.0
2015-Feb-26 13:33N 35°13' E 139°43'0 0.0
2015-Feb-26 12:33N 35°13' E 139°43'0 0.0
2015-Feb-26 11:33N 35°13' E 139°43'0 0.0
2015-Feb-26 10:33N 35°13' E 139°43'0 0.0
2015-Feb-26 09:33N 35°13' E 139°43'0 0.0
2015-Feb-26 08:33N 35°13' E 139°43'0 0.0
2015-Feb-26 07:33N 35°13' E 139°43'0 0.0
2015-Feb-26 06:30N 35°13' E 139°43'0 0.0
2015-Feb-26 05:31N 35°13' E 139°43'0 0.0
2015-Feb-26 04:32N 35°13' E 139°43'0 0.0
2015-Feb-26 03:33N 35°13' E 139°43'0 0.0
2015-Feb-26 02:21N 35°13' E 139°43'0 0.0
2015-Feb-26 01:33N 35°13' E 139°43'1 1.1
2015-Feb-26 00:32N 35°13' E 139°44'3 0.6
2015-Feb-25 20:15N 35°14' E 139°47'3 3.8
2015-Feb-25 19:33N 35°12' E 139°47'4 3.5
2015-Feb-25 18:27N 35°13' E 139°43'0 0.0
2015-Feb-25 17:15N 35°13' E 139°43'0 0.0
2015-Feb-25 16:17N 35°13' E 139°43'0 0.0
2015-Feb-25 15:17N 35°13' E 139°43'0 0.0
2015-Feb-25 14:29N 35°13' E 139°43'0 0.0
2015-Feb-25 11:31N 35°13' E 139°43'0 0.0
2015-Feb-25 10:32N 35°13' E 139°43'0 0.0
2015-Feb-25 09:33N 35°13' E 139°43'0 0.0
2015-Feb-25 08:32N 35°13' E 139°43'0 0.0
2015-Feb-25 07:26N 35°13' E 139°43'5 5.0
2015-Feb-25 06:32N 35°18' E 139°44'6 6.6
2015-Feb-25 05:33N 35°23' E 139°40'0 0.1
2015-Feb-25 04:33N 35°23' E 139°40'0 0.0
2015-Feb-25 03:33N 35°23' E 139°40'0 0.0
2015-Feb-25 02:33N 35°23' E 139°40'3 3.3
2015-Feb-25 01:33N 35°21' E 139°43'1111.3
2015-Feb-25 00:33N 35°10' E 139°47'5 4.9
2015-Feb-24 23:33N 35°13' E 139°43'0 0.0
2015-Feb-24 22:33N 35°13' E 139°43'0 0.0
2015-Feb-24 21:33N 35°13' E 139°43'0 0.0
2015-Feb-24 20:33N 35°13' E 139°43'0 0.0
2015-Feb-24 19:33N 35°13' E 139°43'0 0.0
2015-Feb-24 18:33N 35°13' E 139°43'0 0.0
2015-Feb-24 17:33N 35°13' E 139°43'0 0.0
2015-Feb-24 16:33N 35°13' E 139°43'0 0.0
2015-Feb-24 15:33N 35°13' E 139°43'0 0.0
2015-Feb-24 14:33N 35°13' E 139°43'0 0.0
2015-Feb-24 13:33N 35°13' E 139°43'3 0.3
2015-Feb-24 03:20N 35°15' E 139°45'7 9.0
2015-Feb-24 02:33N 35°22' E 139°42'3 1.5
2015-Feb-24 00:32N 35°19' E 139°43'5 5.2
2015-Feb-23 23:33N 35°24' E 139°44'7 6.5
2015-Feb-23 22:33N 35°17' E 139°44'4 0.4
2015-Feb-23 11:33N 35°13' E 139°44'7 6.8
2015-Feb-23 10:33N 35°19' E 139°39'0 0.4
2015-Feb-23 09:33N 35°19' E 139°40'0 0.1
2015-Feb-23 08:34N 35°19' E 139°40'0 0.0
2015-Feb-23 07:34N 35°19' E 139°40'0 0.0
2015-Feb-23 06:34N 35°19' E 139°40'0 0.0
2015-Feb-23 05:33N 35°19' E 139°40'5 5.1
2015-Feb-23 04:33N 35°23' E 139°44'8 7.4
2015-Feb-23 03:32N 35°15' E 139°47'1 1.2
2015-Feb-23 02:31N 35°15' E 139°45'4 3.0
2015-Feb-23 01:04N 35°17' E 139°41'611.5
2015-Feb-23 00:34N 35°23' E 139°42'3 3.0
2015-Feb-22 23:33N 35°21' E 139°45'  
Track history (hours):
 
Tides and Currents Weather Stations Pressure Air Temp Water Temp Dewpoint Dewpoint Depression Visibility Wind Speed Wind Dir Waves Ship Positions

Uraga Maru

Last reported at 2015-Mar-04 18:15 UTC. Time now 2015-Mar-04 22:44 UTC.
Position N 35°17' E 139°41'.

Length 40 m; draft 2.8 m.

Type: Tug. MMSI: 431101119.

Date/timePositionNaut miles runAvg speedWind from/ knotsBaromVisibWave heightAir tempDewpointWater temp
2015-Mar-04 18:15N 35°17' E 139°41'0 0.0
2015-Mar-04 17:33N 35°17' E 139°41'0 0.0
2015-Mar-04 16:32N 35°17' E 139°41'0 0.0
2015-Mar-04 15:33N 35°17' E 139°41'0 0.0
2015-Mar-04 14:30N 35°17' E 139°41'0 0.0
2015-Mar-04 13:18N 35°17' E 139°41'0 0.0
2015-Mar-04 12:33N 35°17' E 139°41'0 0.0
2015-Mar-04 11:33N 35°17' E 139°41'0 0.0
2015-Mar-04 10:29N 35°17' E 139°41'0 0.0
2015-Mar-04 09:23N 35°17' E 139°41'0 0.0
2015-Mar-04 08:28N 35°17' E 139°41'0 0.0
2015-Mar-04 07:29N 35°17' E 139°41'0 0.0
2015-Mar-04 06:28N 35°17' E 139°41'0 0.0
2015-Mar-04 05:32N 35°17' E 139°41'0 0.0
2015-Mar-04 04:33N 35°17' E 139°41'0 0.0
2015-Mar-04 03:33N 35°17' E 139°41'3 2.9
2015-Mar-04 02:33N 35°17' E 139°44'1 1.1
2015-Mar-04 01:32N 35°18' E 139°44'6 6.4
2015-Mar-04 00:33N 35°23' E 139°48'2 2.5
2015-Mar-03 23:33N 35°21' E 139°49'8 7.6
2015-Mar-03 22:33N 35°17' E 139°41'0 0.2
2015-Mar-03 21:21N 35°17' E 139°41'0 0.0
2015-Mar-03 15:24N 35°17' E 139°41'0 0.0
2015-Mar-03 14:31N 35°17' E 139°41'0 0.0
2015-Mar-03 13:31N 35°17' E 139°41'0 0.0
2015-Mar-03 11:25N 35°17' E 139°41'0 0.0
2015-Mar-03 10:18N 35°17' E 139°41'0 0.0
2015-Mar-03 09:22N 35°17' E 139°41'0 0.0
2015-Mar-03 08:28N 35°17' E 139°41'0 0.0
2015-Mar-03 07:33N 35°17' E 139°41'0 0.0
2015-Mar-03 06:32N 35°17' E 139°41'0 0.0
2015-Mar-03 05:33N 35°17' E 139°41'6 5.8
2015-Mar-03 04:33N 35°23' E 139°42'6 5.8
2015-Mar-03 03:33N 35°28' E 139°44'0 0.1
2015-Mar-03 02:33N 35°28' E 139°44'0 0.2
2015-Mar-03 01:34N 35°28' E 139°44'0 0.2
2015-Mar-03 00:33N 35°28' E 139°44'0 0.3
2015-Mar-02 23:34N 35°28' E 139°44'0 0.3
2015-Mar-02 22:33N 35°28' E 139°44'0 0.2
2015-Mar-02 21:33N 35°28' E 139°44'0 0.3
2015-Mar-02 20:33N 35°28' E 139°44'0 0.0
2015-Mar-02 19:33N 35°28' E 139°44'0 0.0
2015-Mar-02 18:33N 35°28' E 139°44'0 0.0
2015-Mar-02 17:33N 35°28' E 139°44'0 0.0
2015-Mar-02 16:33N 35°28' E 139°44'0 0.0
2015-Mar-02 15:33N 35°28' E 139°44'0 0.0
2015-Mar-02 14:33N 35°28' E 139°44'0 0.0
2015-Mar-02 13:33N 35°28' E 139°44'0 0.0
2015-Mar-02 12:33N 35°28' E 139°44'0 0.1
2015-Mar-02 11:32N 35°28' E 139°44'0 0.1
2015-Mar-02 10:33N 35°28' E 139°44'0 0.2
2015-Mar-02 09:31N 35°28' E 139°44'0 0.1
2015-Mar-02 08:33N 35°28' E 139°44'0 0.0
2015-Mar-02 07:33N 35°28' E 139°44'0 0.2
2015-Mar-02 06:33N 35°28' E 139°44'0 0.0
2015-Mar-02 05:33N 35°28' E 139°44'0 0.2
2015-Mar-02 04:33N 35°28' E 139°44'0 0.2
2015-Mar-02 03:33N 35°28' E 139°44'2 1.7
2015-Mar-02 02:33N 35°27' E 139°45'1110.6
2015-Mar-02 01:33N 35°16' E 139°46'4 3.6
2015-Mar-02 00:33N 35°13' E 139°46'6 5.7
2015-Mar-01 23:30N 35°17' E 139°41'0 0.0
2015-Mar-01 22:34N 35°17' E 139°41'0 0.0
2015-Mar-01 09:11N 35°17' E 139°41'0 0.0
2015-Mar-01 08:24N 35°17' E 139°41'0 0.0
2015-Mar-01 07:16N 35°17' E 139°41'0 0.2
2015-Mar-01 05:33N 35°17' E 139°41'6 5.9
2015-Mar-01 04:34N 35°23' E 139°43'7 6.8
2015-Mar-01 03:34N 35°16' E 139°46'5 4.6
2015-Mar-01 02:33N 35°12' E 139°48'6 5.6
2015-Mar-01 01:33N 35°17' E 139°44'8 8.1
2015-Mar-01 00:33N 35°25' E 139°43'7 6.9
2015-Feb-28 23:33N 35°18' E 139°45'6 6.4
2015-Feb-28 22:33N 35°12' E 139°46'7 6.3
2015-Feb-28 21:27N 35°17' E 139°41'0 0.0
2015-Feb-28 20:32N 35°17' E 139°41'0 0.0
2015-Feb-28 07:24N 35°17' E 139°41'0 0.0
2015-Feb-28 06:32N 35°17' E 139°41'0 0.0
2015-Feb-28 05:32N 35°17' E 139°41'0 0.0
2015-Feb-28 04:33N 35°17' E 139°41'0 0.0
2015-Feb-28 03:31N 35°17' E 139°41'4 3.9
2015-Feb-28 02:28N 35°16' E 139°45'1 1.2
2015-Feb-28 01:29N 35°17' E 139°45'9 9.3
2015-Feb-28 00:33N 35°25' E 139°47'5 4.6
2015-Feb-27 23:33N 35°21' E 139°49'1 1.3
2015-Feb-27 22:34N 35°22' E 139°48'6 6.0
2015-Feb-27 21:33N 35°16' E 139°47'3 3.4
2015-Feb-27 20:33N 35°13' E 139°45'2 2.2
2015-Feb-27 19:33N 35°13' E 139°43'0 0.0
2015-Feb-27 18:33N 35°13' E 139°43'2 2.3
2015-Feb-27 17:33N 35°12' E 139°45'1010.3
2015-Feb-27 16:34N 35°22' E 139°42'2 1.9
2015-Feb-27 15:34N 35°24' E 139°41'2 1.7
2015-Feb-27 14:34N 35°23' E 139°43'6 6.3
2015-Feb-27 13:33N 35°26' E 139°50'4 4.4
2015-Feb-27 12:34N 35°23' E 139°46'10 9.4
2015-Feb-27 11:32N 35°13' E 139°47'2 2.3
2015-Feb-27 10:33N 35°13' E 139°44'1 0.8
2015-Feb-27 09:15N 35°13' E 139°43'4 5.5
2015-Feb-27 08:32N 35°17' E 139°45'7 7.4
2015-Feb-27 07:33N 35°24' E 139°44'0 0.3
2015-Feb-27 06:33N 35°24' E 139°44'0 0.4
2015-Feb-27 05:33N 35°24' E 139°44'0 0.0
2015-Feb-27 04:33N 35°24' E 139°44'0 0.0
2015-Feb-27 03:33N 35°24' E 139°44'0 0.0
2015-Feb-27 02:33N 35°24' E 139°44'0 0.0
2015-Feb-27 01:33N 35°24' E 139°44'3 2.8
2015-Feb-27 00:33N 35°21' E 139°45'1111.0
2015-Feb-26 23:33N 35°10' E 139°47'4 4.3
2015-Feb-26 22:33N 35°13' E 139°43'0 0.0
2015-Feb-26 21:33N 35°13' E 139°43'0 0.0
2015-Feb-26 20:33N 35°13' E 139°43'0 0.0
2015-Feb-26 19:32N 35°13' E 139°43'0 0.0
2015-Feb-26 18:33N 35°13' E 139°43'0 0.0
2015-Feb-26 17:33N 35°13' E 139°43'0 0.0
2015-Feb-26 16:33N 35°13' E 139°43'0 0.0
2015-Feb-26 15:32N 35°13' E 139°43'0 0.0
2015-Feb-26 14:33N 35°13' E 139°43'0 0.0
2015-Feb-26 13:33N 35°13' E 139°43'0 0.0
2015-Feb-26 12:33N 35°13' E 139°43'0 0.0
2015-Feb-26 11:33N 35°13' E 139°43'0 0.0
2015-Feb-26 10:33N 35°13' E 139°43'0 0.0
2015-Feb-26 09:33N 35°13' E 139°43'0 0.0
2015-Feb-26 08:33N 35°13' E 139°43'0 0.0
2015-Feb-26 07:33N 35°13' E 139°43'0 0.0
2015-Feb-26 06:30N 35°13' E 139°43'0 0.0
2015-Feb-26 05:31N 35°13' E 139°43'0 0.0
2015-Feb-26 04:32N 35°13' E 139°43'0 0.0
2015-Feb-26 03:33N 35°13' E 139°43'0 0.0
2015-Feb-26 02:21N 35°13' E 139°43'0 0.0
2015-Feb-26 01:33N 35°13' E 139°43'1 1.1
2015-Feb-26 00:32N 35°13' E 139°44'3 0.6
2015-Feb-25 20:15N 35°14' E 139°47'3 3.8
2015-Feb-25 19:33N 35°12' E 139°47'4 3.5
2015-Feb-25 18:27N 35°13' E 139°43'0 0.0
2015-Feb-25 17:15N 35°13' E 139°43'0 0.0
2015-Feb-25 16:17N 35°13' E 139°43'0 0.0
2015-Feb-25 15:17N 35°13' E 139°43'0 0.0
2015-Feb-25 14:29N 35°13' E 139°43'0 0.0
2015-Feb-25 11:31N 35°13' E 139°43'0 0.0
2015-Feb-25 10:32N 35°13' E 139°43'0 0.0
2015-Feb-25 09:33N 35°13' E 139°43'0 0.0
2015-Feb-25 08:32N 35°13' E 139°43'0 0.0
2015-Feb-25 07:26N 35°13' E 139°43'5 5.0
2015-Feb-25 06:32N 35°18' E 139°44'6 6.6
2015-Feb-25 05:33N 35°23' E 139°40'0 0.1
2015-Feb-25 04:33N 35°23' E 139°40'0 0.0
2015-Feb-25 03:33N 35°23' E 139°40'0 0.0
2015-Feb-25 02:33N 35°23' E 139°40'3 3.3
2015-Feb-25 01:33N 35°21' E 139°43'1111.3
2015-Feb-25 00:33N 35°10' E 139°47'5 4.9
2015-Feb-24 23:33N 35°13' E 139°43'0 0.0
2015-Feb-24 22:33N 35°13' E 139°43'0 0.0
2015-Feb-24 21:33N 35°13' E 139°43'0 0.0
2015-Feb-24 20:33N 35°13' E 139°43'0 0.0
2015-Feb-24 19:33N 35°13' E 139°43'0 0.0
2015-Feb-24 18:33N 35°13' E 139°43'0 0.0
2015-Feb-24 17:33N 35°13' E 139°43'0 0.0
2015-Feb-24 16:33N 35°13' E 139°43'0 0.0
2015-Feb-24 15:33N 35°13' E 139°43'0 0.0
2015-Feb-24 14:33N 35°13' E 139°43'0 0.0
2015-Feb-24 13:33N 35°13' E 139°43'3 0.3
2015-Feb-24 03:20N 35°15' E 139°45'7 9.0
2015-Feb-24 02:33N 35°22' E 139°42'3 1.5
2015-Feb-24 00:32N 35°19' E 139°43'5 5.2
2015-Feb-23 23:33N 35°24' E 139°44'7 6.5
2015-Feb-23 22:33N 35°17' E 139°44'4 0.4
2015-Feb-23 11:33N 35°13' E 139°44'7 6.8
2015-Feb-23 10:33N 35°19' E 139°39'0 0.4
2015-Feb-23 09:33N 35°19' E 139°40'0 0.1
2015-Feb-23 08:34N 35°19' E 139°40'0 0.0
2015-Feb-23 07:34N 35°19' E 139°40'0 0.0
2015-Feb-23 06:34N 35°19' E 139°40'0 0.0
2015-Feb-23 05:33N 35°19' E 139°40'5 5.1
2015-Feb-23 04:33N 35°23' E 139°44'8 7.4
2015-Feb-23 03:32N 35°15' E 139°47'1 1.2
2015-Feb-23 02:31N 35°15' E 139°45'4 3.0
2015-Feb-23 01:04N 35°17' E 139°41'611.5
2015-Feb-23 00:34N 35°23' E 139°42'3 3.0
2015-Feb-22 23:33N 35°21' E 139°45'  

Dump ship's entire track history